Time;durP1;ratioP1;P1;durP2;ratioP2;P2;SDS_P1;SDS_P2;PMS_P1;PMS_P2;Temp;Humidity;BMP_temperature;BMP_pressure;BME280_temperature;BME280_humidity;BME280_pressure;Samples;Min_cycle;Max_cycle;Signal;HPM_P1;HPM_P2
2023/10/27 00:00:55;;;;;;;6.93;3.23;;;17.20;69.30;;;;;;5071311;28;20838;-53
2023/10/27 00:03:20;;;;;;;3.87;2.50;;;17.20;69.30;;;;;;5070825;28;20613;-49
2023/10/27 00:05:46;;;;;;;5.03;3.57;;;17.20;68.90;;;;;;5071237;28;20180;-54
2023/10/27 00:08:13;;;;;;;4.20;3.40;;;17.30;69.10;;;;;;5069973;28;20202;-51
2023/10/27 00:10:39;;;;;;;5.10;3.20;;;17.30;68.90;;;;;;5071145;28;20707;-51
2023/10/27 00:13:04;;;;;;;3.93;3.50;;;17.40;68.80;;;;;;5070617;28;20424;-52
2023/10/27 00:15:30;;;;;;;4.07;3.30;;;17.30;68.40;;;;;;5070742;28;20655;-51
2023/10/27 00:17:58;;;;;;;5.57;3.70;;;17.20;67.70;;;;;;5070164;28;20178;-54
2023/10/27 00:20:25;;;;;;;3.50;3.20;;;17.10;68.10;;;;;;5070743;28;20211;-52
2023/10/27 00:22:50;;;;;;;4.80;3.40;;;17.10;68.70;;;;;;5070332;28;20475;-53
2023/10/27 00:25:16;;;;;;;5.20;3.50;;;17.20;68.50;;;;;;5070642;28;20422;-50
2023/10/27 00:27:41;;;;;;;4.70;3.90;;;17.20;68.40;;;;;;5069939;28;20184;-54
2023/10/27 00:30:08;;;;;;;6.00;2.97;;;17.30;68.20;;;;;;5071360;28;20207;-52
2023/10/27 00:32:33;;;;;;;2.90;2.57;;;17.20;68.00;;;;;;5070369;28;20191;-56
2023/10/27 00:34:59;;;;;;;5.23;2.83;;;17.20;67.90;;;;;;5070473;28;20422;-55
2023/10/27 00:37:24;;;;;;;2.97;2.73;;;17.20;67.80;;;;;;5067254;28;20267;-51
2023/10/27 00:39:50;;;;;;;7.50;3.93;;;17.20;68.00;;;;;;5070592;28;20224;-53
2023/10/27 00:42:15;;;;;;;5.00;3.40;;;17.20;68.10;;;;;;5069953;28;20183;-52
2023/10/27 00:44:41;;;;;;;4.20;2.80;;;17.20;67.80;;;;;;5070266;28;20200;-50
2023/10/27 00:47:08;;;;;;;4.70;3.20;;;17.20;67.80;;;;;;5069658;28;20184;-49
2023/10/27 00:49:34;;;;;;;5.03;2.97;;;17.10;67.80;;;;;;5070254;28;20491;-52
2023/10/27 00:52:00;;;;;;;4.60;2.97;;;17.10;68.20;;;;;;5070011;28;20425;-53
2023/10/27 00:54:26;;;;;;;3.40;2.33;;;17.10;68.00;;;;;;5069835;28;20462;-52
2023/10/27 00:56:53;;;;;;;4.20;3.47;;;16.90;68.30;;;;;;5069629;28;20418;-49
2023/10/27 00:59:19;;;;;;;3.23;2.33;;;16.70;68.60;;;;;;5070382;28;20477;-50
2023/10/27 01:01:44;;;;;;;3.30;2.87;;;16.80;68.90;;;;;;5069569;28;21125;-50
2023/10/27 01:04:10;;;;;;;4.43;2.43;;;16.70;69.20;;;;;;5070399;28;20578;-50
2023/10/27 01:06:36;;;;;;;3.50;2.37;;;16.60;69.70;;;;;;5068805;28;20180;-49
2023/10/27 01:09:02;;;;;;;7.47;2.60;;;16.70;69.50;;;;;;5069243;28;20215;-53
2023/10/27 01:11:28;;;;;;;4.90;2.23;;;16.70;69.10;;;;;;5069378;28;20267;-51
2023/10/27 01:13:54;;;;;;;3.47;2.43;;;16.70;69.10;;;;;;5070224;28;20949;-53
2023/10/27 01:16:21;;;;;;;3.57;2.00;;;16.60;68.00;;;;;;5069046;28;20434;-53
2023/10/27 01:18:46;;;;;;;4.20;2.30;;;16.50;68.70;;;;;;5069500;28;20211;-49
2023/10/27 01:21:12;;;;;;;5.10;2.20;;;16.50;68.90;;;;;;5069294;28;20811;-52
2023/10/27 01:23:37;;;;;;;4.83;2.30;;;16.30;69.50;;;;;;5069338;28;20188;-49
2023/10/27 01:26:03;;;;;;;5.70;2.20;;;16.40;69.70;;;;;;5068940;28;20183;-52
2023/10/27 01:28:30;;;;;;;2.97;2.17;;;16.40;69.80;;;;;;5069473;28;20295;-50
2023/10/27 01:30:56;;;;;;;3.73;2.17;;;16.40;69.80;;;;;;5069207;28;20963;-52
2023/10/27 01:33:22;;;;;;;2.93;1.90;;;16.30;70.20;;;;;;5069032;28;20701;-51
2023/10/27 01:35:48;;;;;;;4.40;2.20;;;16.30;70.00;;;;;;5068844;28;20840;-52
2023/10/27 01:38:13;;;;;;;2.67;2.07;;;16.20;70.30;;;;;;5068970;28;20478;-50
2023/10/27 01:40:39;;;;;;;3.60;2.10;;;16.30;70.60;;;;;;5068992;28;20215;-50
2023/10/27 01:43:05;;;;;;;2.60;2.30;;;16.30;70.20;;;;;;5068884;28;20267;-50
2023/10/27 01:45:30;;;;;;;3.80;2.20;;;16.30;70.00;;;;;;5069208;28;20279;-49
2023/10/27 01:47:56;;;;;;;3.23;2.10;;;16.20;70.10;;;;;;5068298;28;20194;-50
2023/10/27 01:50:21;;;;;;;3.10;2.10;;;16.10;70.20;;;;;;5069033;28;20615;-49
2023/10/27 01:52:47;;;;;;;4.47;2.00;;;16.10;69.80;;;;;;5069056;28;20183;-49
2023/10/27 01:55:12;;;;;;;9.10;2.30;;;16.10;70.30;;;;;;5068670;28;20231;-52
2023/10/27 01:57:38;;;;;;;2.20;1.53;;;16.10;69.90;;;;;;5068346;28;20183;-50
2023/10/27 02:00:05;;;;;;;5.27;1.70;;;16.20;69.80;;;;;;5068837;28;20247;-49
2023/10/27 02:02:30;;;;;;;2.80;1.60;;;16.30;69.50;;;;;;5068789;28;20984;-51
2023/10/27 02:04:56;;;;;;;2.90;2.10;;;16.30;68.80;;;;;;5068625;28;20503;-50
2023/10/27 02:07:24;;;;;;;3.63;1.60;;;16.20;69.00;;;;;;5068087;28;20232;-52
2023/10/27 02:09:51;;;;;;;5.00;2.27;;;16.20;68.90;;;;;;5068942;28;20196;-49
2023/10/27 02:12:16;;;;;;;6.20;2.03;;;16.30;68.70;;;;;;5068527;28;20431;-50
2023/10/27 02:14:42;;;;;;;1.97;1.53;;;16.00;68.40;;;;;;5068307;28;20489;-49
2023/10/27 02:17:07;;;;;;;1.90;1.20;;;15.90;68.90;;;;;;5068131;28;20179;-50
2023/10/27 02:19:33;;;;;;;2.97;1.40;;;15.80;69.60;;;;;;5068180;28;20218;-53
2023/10/27 02:21:59;;;;;;;5.53;1.70;;;15.90;69.80;;;;;;5068679;28;20207;-52
2023/10/27 02:24:24;;;;;;;2.97;2.10;;;16.00;69.50;;;;;;5068454;28;20180;-48
2023/10/27 02:26:50;;;;;;;5.20;2.00;;;16.10;69.30;;;;;;5067825;28;20626;-49
2023/10/27 02:29:17;;;;;;;4.50;1.60;;;16.10;68.90;;;;;;5068727;28;20234;-49
2023/10/27 02:31:43;;;;;;;4.37;1.60;;;16.10;68.90;;;;;;5062360;28;20191;-49
2023/10/27 02:34:09;;;;;;;2.30;1.40;;;16.10;68.90;;;;;;5068204;28;20430;-54
2023/10/27 02:36:34;;;;;;;4.57;1.70;;;16.10;69.30;;;;;;5067919;28;20245;-53
2023/10/27 02:39:00;;;;;;;2.30;1.30;;;16.10;69.00;;;;;;5068811;28;20883;-54
2023/10/27 02:41:25;;;;;;;3.53;1.27;;;16.00;69.30;;;;;;5068041;28;20176;-54
2023/10/27 02:43:51;;;;;;;3.63;1.60;;;15.80;69.60;;;;;;5068518;28;20176;-52
2023/10/27 02:46:16;;;;;;;3.00;1.63;;;15.80;70.30;;;;;;5067865;28;20186;-51
2023/10/27 02:48:42;;;;;;;2.20;1.43;;;15.90;70.40;;;;;;5067887;28;20210;-54
2023/10/27 02:51:08;;;;;;;3.10;1.60;;;16.00;70.00;;;;;;5068324;28;20191;-50
2023/10/27 02:53:34;;;;;;;2.70;1.53;;;16.10;69.80;;;;;;5067945;28;20191;-51
2023/10/27 02:56:09;;;;;;;4.97;1.60;;;16.20;69.50;;;;;;5068079;28;20757;-49
2023/10/27 02:58:36;;;;;;;2.47;1.70;;;16.20;68.80;;;;;;5067945;28;20226;-52
2023/10/27 03:01:09;;;;;;;2.90;1.47;;;16.00;69.40;;;;;;5068375;28;20505;-51
2023/10/27 03:03:35;;;;;;;3.23;1.63;;;16.20;69.50;;;;;;5067943;28;20448;-49
2023/10/27 03:06:02;;;;;;;1.90;1.43;;;16.30;69.30;;;;;;5067968;28;20430;-52
2023/10/27 03:08:27;;;;;;;1.73;1.43;;;16.30;68.60;;;;;;5067770;28;20450;-54
2023/10/27 03:10:53;;;;;;;2.27;1.53;;;16.30;68.70;;;;;;5068261;28;20430;-51
2023/10/27 03:13:18;;;;;;;5.83;1.80;;;16.30;68.50;;;;;;5067809;28;20187;-49
2023/10/27 03:15:44;;;;;;;3.27;1.77;;;16.30;68.40;;;;;;5067969;28;20567;-52
2023/10/27 03:18:11;;;;;;;1.80;1.40;;;16.20;68.30;;;;;;5066987;28;20204;-52
2023/10/27 03:20:37;;;;;;;3.60;1.33;;;15.90;69.10;;;;;;5068053;28;20220;-49
2023/10/27 03:23:02;;;;;;;2.90;1.40;;;15.90;69.30;;;;;;5067904;28;20760;-52
2023/10/27 03:25:28;;;;;;;2.90;1.40;;;15.90;69.30;;;;;;5067997;28;20190;-52
2023/10/27 03:27:53;;;;;;;1.57;1.37;;;16.00;69.00;;;;;;5067029;28;20232;-50
2023/10/27 03:30:19;;;;;;;1.33;1.23;;;16.00;68.70;;;;;;5067948;28;20203;-50
2023/10/27 03:32:44;;;;;;;3.60;1.40;;;16.00;68.70;;;;;;5070245;28;20601;-54
2023/10/27 03:35:10;;;;;;;2.37;1.53;;;16.00;68.40;;;;;;5071568;28;20218;-51
2023/10/27 03:37:35;;;;;;;3.33;1.27;;;16.00;68.60;;;;;;5071029;28;20575;-50
2023/10/27 03:40:03;;;;;;;2.20;1.40;;;15.90;68.60;;;;;;5071906;28;20218;-51
2023/10/27 03:42:29;;;;;;;2.63;1.20;;;15.80;68.60;;;;;;5071246;28;20644;-52
2023/10/27 03:44:54;;;;;;;2.03;1.10;;;15.70;69.20;;;;;;5071738;28;20418;-52
2023/10/27 03:47:20;;;;;;;4.13;2.00;;;15.60;69.60;;;;;;5070769;28;20180;-55
2023/10/27 03:49:45;;;;;;;1.73;1.60;;;15.50;70.10;;;;;;5071866;28;20196;-49
2023/10/27 03:52:11;;;;;;;2.87;1.10;;;15.70;69.70;;;;;;5071399;28;20529;-50
2023/10/27 03:54:36;;;;;;;3.67;1.30;;;15.40;69.60;;;;;;5071368;28;20195;-51
2023/10/27 03:57:02;;;;;;;1.43;1.33;;;15.30;70.80;;;;;;5070673;28;20639;-54
2023/10/27 03:59:28;;;;;;;1.80;1.43;;;15.20;71.30;;;;;;5071472;28;20564;-57
2023/10/27 04:01:53;;;;;;;1.67;1.33;;;15.40;71.20;;;;;;5071074;28;20194;-50
2023/10/27 04:04:19;;;;;;;1.30;1.10;;;15.50;70.40;;;;;;5071145;28;20211;-49
2023/10/27 04:06:45;;;;;;;3.00;1.70;;;15.30;70.90;;;;;;5070504;28;20184;-51
2023/10/27 04:09:11;;;;;;;1.37;1.27;;;15.20;71.00;;;;;;5071148;28;20453;-50
2023/10/27 04:11:37;;;;;;;2.60;1.40;;;15.00;71.90;;;;;;5070592;28;20183;-49
2023/10/27 04:14:04;;;;;;;5.73;1.50;;;15.00;72.50;;;;;;5070960;28;20412;-53
2023/10/27 04:16:30;;;;;;;2.60;1.20;;;15.00;72.70;;;;;;5070316;28;21007;-48
2023/10/27 04:18:56;;;;;;;2.50;1.23;;;15.20;72.80;;;;;;5071085;28;20437;-51
2023/10/27 04:21:21;;;;;;;2.43;1.53;;;15.40;72.20;;;;;;5070892;28;20180;-49
2023/10/27 04:23:47;;;;;;;2.33;1.33;;;15.40;71.70;;;;;;5070759;28;20427;-48
2023/10/27 04:26:13;;;;;;;1.57;1.20;;;15.40;72.20;;;;;;5070345;28;20197;-50
2023/10/27 04:28:39;;;;;;;1.83;1.73;;;15.60;72.00;;;;;;5070472;28;20215;-50
2023/10/27 04:31:05;;;;;;;2.80;1.27;;;15.60;71.60;;;;;;5070441;28;20425;-50
2023/10/27 04:33:31;;;;;;;1.60;1.50;;;15.70;71.50;;;;;;5070571;28;20188;-51
2023/10/27 04:35:56;;;;;;;3.30;1.43;;;15.70;70.80;;;;;;5070171;28;20424;-50
2023/10/27 04:38:22;;;;;;;2.30;1.50;;;15.60;70.80;;;;;;5070237;28;20211;-49
2023/10/27 04:40:51;;;;;;;3.27;1.60;;;15.60;71.10;;;;;;5070409;28;20215;-50
2023/10/27 04:43:17;;;;;;;1.93;1.30;;;15.60;69.80;;;;;;5070086;28;20214;-51
2023/10/27 04:45:45;;;;;;;3.23;1.57;;;15.60;70.30;;;;;;5070287;28;20458;-51
2023/10/27 04:48:10;;;;;;;3.47;1.77;;;15.60;70.30;;;;;;5069732;28;20621;-53
2023/10/27 04:50:36;;;;;;;2.57;1.50;;;15.70;70.20;;;;;;5070096;28;20414;-48
2023/10/27 04:53:01;;;;;;;4.40;2.07;;;15.80;69.80;;;;;;5070351;28;20238;-48
2023/10/27 04:55:27;;;;;;;3.33;1.60;;;15.90;69.60;;;;;;5070092;28;20208;-49
2023/10/27 04:57:52;;;;;;;1.40;1.30;;;16.00;69.20;;;;;;5069524;28;20267;-52
2023/10/27 05:00:18;;;;;;;2.10;1.37;;;15.80;68.80;;;;;;5070182;28;20216;-54
2023/10/27 05:02:44;;;;;;;1.30;1.20;;;15.90;68.70;;;;;;5070029;28;20283;-50
2023/10/27 05:05:09;;;;;;;1.37;1.27;;;15.90;68.40;;;;;;5069919;28;20172;-49
2023/10/27 05:07:36;;;;;;;1.33;1.23;;;15.80;68.40;;;;;;5069262;28;20191;-50
2023/10/27 05:10:02;;;;;;;3.40;1.23;;;15.90;68.30;;;;;;5069861;28;20621;-49
2023/10/27 05:12:28;;;;;;;2.00;1.00;;;15.80;67.90;;;;;;5069897;28;20422;-48
2023/10/27 05:14:54;;;;;;;1.20;0.90;;;15.70;68.10;;;;;;5069704;28;20224;-49
2023/10/27 05:17:20;;;;;;;3.07;1.03;;;15.60;68.00;;;;;;5069138;28;20191;-49
2023/10/27 05:19:45;;;;;;;1.20;1.00;;;15.40;68.30;;;;;;5069477;28;20481;-51
2023/10/27 05:22:12;;;;;;;2.43;1.17;;;15.30;68.80;;;;;;5069506;28;20180;-52
2023/10/27 05:24:38;;;;;;;1.77;1.10;;;15.60;68.60;;;;;;5069520;28;20188;-49
2023/10/27 05:27:04;;;;;;;1.23;1.07;;;15.60;68.50;;;;;;5068762;28;21025;-49
2023/10/27 05:29:30;;;;;;;2.33;1.13;;;15.70;68.20;;;;;;5069715;28;20215;-51
2023/10/27 05:31:55;;;;;;;2.10;1.60;;;15.90;67.70;;;;;;5069319;28;20184;-52
2023/10/27 05:34:21;;;;;;;1.90;1.30;;;16.00;67.50;;;;;;5069262;28;20480;-51
2023/10/27 05:36:46;;;;;;;2.13;1.40;;;16.10;67.40;;;;;;5068643;28;20674;-48
2023/10/27 05:39:23;;;;;;;1.93;1.30;;;16.20;67.60;;;;;;5069479;28;20319;-49
2023/10/27 05:41:49;;;;;;;2.10;1.30;;;16.20;67.40;;;;;;5064114;28;20183;-50
2023/10/27 05:44:15;;;;;;;1.97;1.03;;;16.10;66.90;;;;;;5068887;28;20437;-50
2023/10/27 05:46:40;;;;;;;2.07;0.93;;;16.10;66.50;;;;;;5068615;28;20183;-50
2023/10/27 05:49:06;;;;;;;1.80;0.93;;;16.20;66.40;;;;;;5069415;28;20434;-49
2023/10/27 05:51:34;;;;;;;1.10;1.03;;;16.30;66.40;;;;;;5068829;28;20198;-52
2023/10/27 05:54:00;;;;;;;2.03;1.57;;;16.30;66.50;;;;;;5068550;28;20225;-49
2023/10/27 05:56:27;;;;;;;2.90;1.43;;;16.20;66.60;;;;;;5068734;28;20418;-54
2023/10/27 05:58:52;;;;;;;1.57;1.20;;;16.30;67.00;;;;;;5069150;28;20216;-49
2023/10/27 06:01:18;;;;;;;3.67;1.30;;;16.30;67.20;;;;;;5068791;28;20450;-52
2023/10/27 06:03:44;;;;;;;2.20;1.43;;;16.30;67.40;;;;;;5068616;28;20184;-50
2023/10/27 06:06:09;;;;;;;2.53;1.30;;;16.30;67.50;;;;;;5067413;28;20180;-52
2023/10/27 06:08:40;;;;;;;2.80;1.33;;;16.20;67.60;;;;;;5068370;28;20283;-49
2023/10/27 06:11:06;;;;;;;1.77;1.60;;;16.30;68.00;;;;;;5068605;28;20188;-50
2023/10/27 06:13:32;;;;;;;1.97;1.50;;;16.30;68.10;;;;;;5068548;28;20487;-51
2023/10/27 06:15:57;;;;;;;2.90;2.10;;;16.20;68.30;;;;;;5068218;28;20249;-49
2023/10/27 06:18:23;;;;;;;3.63;1.60;;;16.10;69.60;;;;;;5068202;28;20203;-52
2023/10/27 06:20:48;;;;;;;10.20;2.60;;;16.00;69.40;;;;;;5068541;28;20325;-50
2023/10/27 06:23:14;;;;;;;5.10;2.30;;;15.90;70.40;;;;;;5068241;28;20245;-55
2023/10/27 06:25:39;;;;;;;3.30;2.20;;;15.90;70.40;;;;;;5068584;28;20206;-50
2023/10/27 06:28:05;;;;;;;10.13;2.43;;;16.00;70.40;;;;;;5067696;28;20172;-49
2023/10/27 06:30:31;;;;;;;3.43;2.20;;;15.80;71.10;;;;;;5068460;28;20192;-49
2023/10/27 06:32:57;;;;;;;2.27;1.87;;;15.90;71.00;;;;;;5068922;28;20187;-52
2023/10/27 06:35:23;;;;;;;7.80;1.83;;;16.00;70.60;;;;;;5068253;28;20472;-52
2023/10/27 06:37:48;;;;;;;2.23;1.57;;;16.00;70.90;;;;;;5067661;28;20179;-49
2023/10/27 06:40:14;;;;;;;2.17;1.17;;;16.00;70.40;;;;;;5068387;28;20223;-53
2023/10/27 06:42:39;;;;;;;21.83;19.60;;;16.10;70.00;;;;;;5068070;28;20655;-48
2023/10/27 06:45:05;;;;;;;8.20;7.37;;;16.10;69.80;;;;;;5068192;28;20195;-49
2023/10/27 06:47:31;;;;;;;1.70;1.57;;;16.10;69.70;;;;;;5067536;28;20180;-53
2023/10/27 06:49:56;;;;;;;2.67;1.67;;;15.50;70.00;;;;;;5068337;28;20483;-49
2023/10/27 06:52:22;;;;;;;1.50;1.37;;;15.20;72.60;;;;;;5067995;28;20307;-51
2023/10/27 06:54:48;;;;;;;2.47;1.37;;;15.40;73.20;;;;;;5068330;28;20230;-52
2023/10/27 06:57:13;;;;;;;1.97;1.40;;;15.60;72.90;;;;;;5067392;28;20188;-49
2023/10/27 06:59:39;;;;;;;5.60;2.00;;;15.70;72.20;;;;;;5068081;28;20591;-50
2023/10/27 07:02:04;;;;;;;2.23;2.00;;;15.80;71.50;;;;;;5067837;28;20180;-50
2023/10/27 07:04:30;;;;;;;2.50;1.53;;;15.70;71.30;;;;;;5068080;28;20630;-51
2023/10/27 07:06:55;;;;;;;1.70;1.60;;;15.80;71.60;;;;;;5067119;28;20275;-49
2023/10/27 07:09:21;;;;;;;2.13;1.97;;;15.70;71.90;;;;;;5072374;28;20241;-51
2023/10/27 07:11:47;;;;;;;1.60;1.50;;;15.60;72.20;;;;;;5071844;28;20283;-48
2023/10/27 07:14:14;;;;;;;2.97;2.10;;;15.60;72.40;;;;;;5071950;28;20191;-55
2023/10/27 07:16:40;;;;;;;1.70;1.60;;;15.70;72.20;;;;;;5071173;28;20232;-48
2023/10/27 07:19:06;;;;;;;1.30;1.20;;;15.80;72.00;;;;;;5072298;28;20488;-52
2023/10/27 07:21:33;;;;;;;1.60;1.50;;;15.80;72.00;;;;;;5071634;28;20445;-49
2023/10/27 07:23:59;;;;;;;1.70;1.40;;;15.90;72.20;;;;;;5071879;28;20188;-50
2023/10/27 07:26:25;;;;;;;3.60;1.43;;;16.00;72.20;;;;;;5071499;28;20413;-53
2023/10/27 07:28:50;;;;;;;1.53;1.40;;;16.00;71.90;;;;;;5071931;28;20562;-54
2023/10/27 07:31:16;;;;;;;2.00;1.53;;;16.10;71.80;;;;;;5071732;28;20564;-49
2023/10/27 07:33:43;;;;;;;1.40;1.30;;;16.10;71.90;;;;;;5070881;28;20180;-50
2023/10/27 07:36:10;;;;;;;1.37;1.27;;;16.10;72.10;;;;;;5071560;28;20196;-51
2023/10/27 07:38:36;;;;;;;1.20;0.97;;;16.00;71.90;;;;;;5071383;28;20478;-49
2023/10/27 07:41:03;;;;;;;3.73;1.30;;;16.10;72.30;;;;;;5071586;28;20503;-52
2023/10/27 07:43:29;;;;;;;1.40;1.10;;;16.10;72.00;;;;;;5071223;28;20777;-50
2023/10/27 07:45:55;;;;;;;2.63;1.00;;;16.10;71.80;;;;;;5070962;28;20417;-49
2023/10/27 07:48:21;;;;;;;2.53;1.30;;;16.10;71.60;;;;;;5071222;28;20438;-53
2023/10/27 07:50:47;;;;;;;2.07;1.20;;;16.20;71.60;;;;;;5071573;28;20180;-51
2023/10/27 07:53:12;;;;;;;2.23;1.47;;;16.30;71.20;;;;;;5070945;28;20417;-52
2023/10/27 07:55:38;;;;;;;2.20;1.33;;;16.40;71.00;;;;;;5071212;28;20203;-50
2023/10/27 07:58:04;;;;;;;1.70;1.23;;;16.50;70.90;;;;;;5070480;28;20194;-50
2023/10/27 08:00:31;;;;;;;2.20;1.40;;;16.40;70.60;;;;;;5071330;28;20691;-50
2023/10/27 08:02:57;;;;;;;5.90;1.47;;;16.40;70.60;;;;;;5070825;28;20437;-51
2023/10/27 08:05:23;;;;;;;1.57;1.20;;;16.30;70.40;;;;;;5071010;28;20426;-53
2023/10/27 08:07:48;;;;;;;1.70;1.57;;;16.10;71.10;;;;;;5070645;28;20437;-49
2023/10/27 08:10:14;;;;;;;6.70;1.30;;;16.20;71.10;;;;;;5071120;28;20184;-49
2023/10/27 08:12:40;;;;;;;1.37;1.27;;;16.00;72.00;;;;;;5070842;28;20233;-49
2023/10/27 08:15:06;;;;;;;1.50;1.40;;;16.10;72.00;;;;;;5070675;28;20901;-49
2023/10/27 08:17:32;;;;;;;1.30;1.20;;;16.10;71.80;;;;;;5069998;28;20183;-50
2023/10/27 08:19:58;;;;;;;1.10;1.10;;;15.90;71.60;;;;;;5071068;28;20473;-48
2023/10/27 08:22:23;;;;;;;1.40;1.30;;;15.80;72.70;;;;;;5070451;28;20663;-50
2023/10/27 08:24:49;;;;;;;1.43;1.23;;;15.80;72.70;;;;;;5070908;28;20200;-52
2023/10/27 08:27:14;;;;;;;0.90;0.90;;;15.90;72.80;;;;;;5069981;28;20284;-50
2023/10/27 08:29:40;;;;;;;1.37;1.00;;;16.00;72.80;;;;;;5070789;28;20245;-50
2023/10/27 08:32:06;;;;;;;2.33;1.10;;;16.00;72.60;;;;;;5070459;28;20188;-49
2023/10/27 08:34:32;;;;;;;0.97;0.93;;;16.00;72.80;;;;;;5070461;28;20581;-49
2023/10/27 08:36:57;;;;;;;1.90;1.00;;;16.10;72.50;;;;;;5070057;28;20668;-52
2023/10/27 08:39:24;;;;;;;1.03;0.70;;;16.00;72.40;;;;;;5069427;28;20584;-50
2023/10/27 08:41:50;;;;;;;1.10;1.00;;;16.00;73.00;;;;;;5070030;28;20192;-50
2023/10/27 08:44:17;;;;;;;1.30;0.70;;;16.10;72.80;;;;;;5070223;28;20510;-50
2023/10/27 08:46:43;;;;;;;2.37;0.97;;;15.60;72.80;;;;;;5069899;28;20882;-48
2023/10/27 08:49:09;;;;;;;1.27;1.00;;;15.50;74.30;;;;;;5070681;28;20446;-48
2023/10/27 08:51:35;;;;;;;1.17;0.90;;;15.60;75.10;;;;;;5069960;28;20418;-49
2023/10/27 08:54:01;;;;;;;1.30;1.00;;;15.60;74.80;;;;;;5070121;28;21097;-50
2023/10/27 08:56:28;;;;;;;2.40;1.10;;;15.60;73.90;;;;;;5069740;28;20506;-50
2023/10/27 08:58:53;;;;;;;1.13;0.87;;;15.60;74.60;;;;;;5070502;28;20314;-51
2023/10/27 09:01:19;;;;;;;1.83;0.80;;;15.60;74.30;;;;;;5070194;28;20908;-51
2023/10/27 09:04:06;;;;;;;1.70;1.00;;;15.50;73.80;;;;;;5069513;28;20225;-48
2023/10/27 09:06:32;;;;;;;1.13;0.80;;;15.50;74.30;;;;;;5069514;28;20188;-49
2023/10/27 09:08:58;;;;;;;1.00;0.90;;;15.70;74.70;;;;;;5070407;28;20531;-48
2023/10/27 09:11:24;;;;;;;2.00;1.17;;;15.60;73.80;;;;;;5069701;28;20422;-55
2023/10/27 09:13:49;;;;;;;0.70;0.60;;;15.80;73.30;;;;;;5069654;28;20253;-48
2023/10/27 09:16:27;;;;;;;0.70;0.70;;;15.70;71.40;;;;;;5069442;28;20196;-49
2023/10/27 09:18:55;;;;;;;1.30;0.70;;;15.70;71.50;;;;;;5065569;28;20655;-50
2023/10/27 09:21:30;;;;;;;1.60;0.80;;;15.70;72.70;;;;;;5069670;28;20478;-49
2023/10/27 09:23:56;;;;;;;0.73;0.73;;;16.00;72.20;;;;;;5069745;28;20520;-51
2023/10/27 09:26:28;;;;;;;1.33;0.80;;;16.00;71.90;;;;;;5069245;28;20458;-50
2023/10/27 09:29:03;;;;;;;0.97;0.87;;;16.00;71.70;;;;;;5069382;28;20691;-50
2023/10/27 09:31:35;;;;;;;0.70;0.70;;;16.00;72.00;;;;;;5069152;28;20417;-53
2023/10/27 09:34:19;;;;;;;0.70;0.67;;;16.10;71.60;;;;;;5069526;28;20426;-49
2023/10/27 09:36:46;;;;;;;0.80;0.67;;;16.20;71.80;;;;;;5063139;28;20505;-49
2023/10/27 09:39:16;;;;;;;1.20;0.90;;;15.80;70.30;;;;;;5069443;28;20449;-53
2023/10/27 09:41:46;;;;;;;2.17;0.73;;;15.80;72.80;;;;;;5068860;28;20506;-51
2023/10/27 09:44:15;;;;;;;9.33;1.60;;;16.00;72.60;;;;;;5069141;28;20418;-49
2023/10/27 09:46:46;;;;;;;0.60;0.60;;;16.00;72.30;;;;;;5068841;28;20410;-51
2023/10/27 09:49:14;;;;;;;3.13;0.70;;;16.20;72.10;;;;;;5069609;28;20803;-49
2023/10/27 09:51:42;;;;;;;1.33;0.90;;;16.20;72.60;;;;;;5068488;28;20429;-49
2023/10/27 09:54:08;;;;;;;1.70;0.80;;;16.10;73.30;;;;;;5068612;28;20445;-49
2023/10/27 09:56:34;;;;;;;1.23;0.80;;;16.10;74.00;;;;;;5068545;28;20879;-51
2023/10/27 09:59:00;;;;;;;1.00;0.90;;;16.30;74.10;;;;;;5069518;28;20445;-49
2023/10/27 10:01:26;;;;;;;1.33;1.23;;;16.40;74.10;;;;;;5068629;28;20199;-49
2023/10/27 10:03:52;;;;;;;1.87;0.90;;;16.40;73.70;;;;;;5069158;28;20445;-50
2023/10/27 10:06:23;;;;;;;1.20;0.80;;;16.40;74.20;;;;;;5069063;28;20957;-48
2023/10/27 10:09:11;;;;;;;1.80;1.00;;;16.50;74.60;;;;;;5066700;28;20238;-52
2023/10/27 10:11:55;;;;;;;2.40;0.90;;;16.50;74.00;;;;;;5068388;28;20487;-49
2023/10/27 10:14:36;;;;;;;1.17;1.07;;;16.40;75.30;;;;;;5068914;28;20552;-52
2023/10/27 10:17:01;;;;;;;4.93;1.00;;;16.40;74.70;;;;;;5065078;28;20483;-51
2023/10/27 10:19:48;;;;;;;1.67;0.73;;;16.20;75.20;;;;;;5069027;28;20470;-48
2023/10/27 10:22:42;;;;;;;0.97;0.90;;;16.10;75.40;;;;;;5068397;28;20175;-49
2023/10/27 10:25:19;;;;;;;1.33;1.10;;;16.20;76.20;;;;;;5068256;28;20971;-51
2023/10/27 10:28:06;;;;;;;1.60;1.20;;;16.10;73.40;;;;;;5062696;28;20413;-52
2023/10/27 10:30:32;;;;;;;1.93;0.90;;;15.80;74.00;;;;;;5068848;28;20456;-50
2023/10/27 10:33:23;;;;;;;3.20;1.37;;;15.80;76.00;;;;;;5068246;28;20446;-51
2023/10/27 10:35:51;;;;;;;2.87;0.90;;;15.90;76.20;;;;;;5063388;28;20577;-52
2023/10/27 10:38:22;;;;;;;2.50;0.90;;;16.00;75.80;;;;;;5068225;28;20442;-51
2023/10/27 10:40:51;;;;;;;4.70;1.70;;;16.00;76.30;;;;;;5063390;28;20465;-53
2023/10/27 10:43:27;;;;;;;1.20;1.10;;;16.10;76.60;;;;;;5068256;28;20913;-51
2023/10/27 10:46:03;;;;;;;1.17;1.07;;;16.20;76.30;;;;;;5065565;28;20988;-53
2023/10/27 10:48:33;;;;;;;3.10;1.53;;;16.00;74.90;;;;;;5068289;28;20544;-51
2023/10/27 10:51:11;;;;;;;1.60;1.50;;;16.00;76.40;;;;;;5068293;28;20924;-54
2023/10/27 10:53:36;;;;;;;1.10;1.00;;;16.30;77.70;;;;;;5067540;28;20869;-48
2023/10/27 10:56:02;;;;;;;3.27;1.40;;;16.60;76.50;;;;;;5068601;28;20483;-54
2023/10/27 10:58:29;;;;;;;2.33;1.50;;;16.80;75.10;;;;;;5067849;28;20344;-49
2023/10/27 11:00:56;;;;;;;1.03;1.00;;;17.10;74.60;;;;;;5068431;28;20309;-50
2023/10/27 11:03:24;;;;;;;3.67;1.27;;;17.10;72.70;;;;;;5067453;28;20438;-49
2023/10/27 11:05:54;;;;;;;4.73;1.20;;;17.10;72.10;;;;;;5068322;28;20426;-52
2023/10/27 11:08:24;;;;;;;2.70;1.20;;;17.40;73.50;;;;;;5067695;28;20953;-49
2023/10/27 11:11:00;;;;;;;1.60;1.17;;;17.40;71.30;;;;;;5068113;28;20442;-50
2023/10/27 11:13:26;;;;;;;2.60;0.90;;;17.40;68.70;;;;;;5067324;28;20414;-52
2023/10/27 11:15:52;;;;;;;4.20;1.33;;;17.40;69.20;;;;;;5068127;28;20763;-52
2023/10/27 11:18:18;;;;;;;2.10;1.23;;;17.50;68.10;;;;;;5067509;28;20441;-49
2023/10/27 11:20:44;;;;;;;4.50;1.10;;;17.60;66.90;;;;;;5061874;28;20215;-51
2023/10/27 11:23:15;;;;;;;1.53;1.00;;;17.60;67.90;;;;;;5066757;28;20541;-52
2023/10/27 11:25:41;;;;;;;3.03;1.23;;;17.90;66.60;;;;;;5068445;28;20310;-52
2023/10/27 11:28:28;;;;;;;1.27;1.00;;;18.00;66.20;;;;;;5067043;28;20438;-49
2023/10/27 11:31:03;;;;;;;4.77;1.23;;;18.10;64.30;;;;;;5063432;28;20422;-50
2023/10/27 11:33:29;;;;;;;3.73;1.23;;;18.00;63.70;;;;;;5067516;28;20786;-49
2023/10/27 11:35:56;;;;;;;3.27;1.00;;;18.10;64.60;;;;;;5067669;28;20429;-48
2023/10/27 11:38:25;;;;;;;2.00;1.20;;;17.90;61.40;;;;;;5067568;28;20208;-49
2023/10/27 11:40:51;;;;;;;1.47;0.90;;;17.70;61.10;;;;;;5067932;28;20551;-51
2023/10/27 11:43:18;;;;;;;5.27;1.57;;;17.90;63.30;;;;;;5067131;28;20434;-49
2023/10/27 11:45:45;;;;;;;3.53;1.10;;;18.10;62.80;;;;;;5068050;28;20437;-48
2023/10/27 11:48:11;;;;;;;2.07;1.20;;;18.20;61.90;;;;;;5066875;28;20965;-49
2023/10/27 11:50:36;;;;;;;1.40;1.20;;;18.30;60.80;;;;;;5067706;28;20422;-49
2023/10/27 11:53:02;;;;;;;1.50;1.10;;;18.30;60.50;;;;;;5069015;28;20203;-50
2023/10/27 11:55:27;;;;;;;1.27;1.07;;;18.40;60.40;;;;;;5071240;28;20585;-48
2023/10/27 11:57:53;;;;;;;2.50;1.03;;;18.20;59.30;;;;;;5070545;28;20720;-49
2023/10/27 12:00:18;;;;;;;2.30;1.23;;;18.10;59.40;;;;;;5071206;28;20227;-52
2023/10/27 12:02:44;;;;;;;2.27;1.17;;;18.00;59.40;;;;;;5070963;28;20188;-50
2023/10/27 12:05:09;;;;;;;2.20;0.93;;;18.10;59.00;;;;;;5071094;28;20196;-49
2023/10/27 12:07:35;;;;;;;2.80;1.03;;;17.90;58.00;;;;;;5070207;28;20180;-50
2023/10/27 12:10:01;;;;;;;3.93;1.37;;;17.90;58.90;;;;;;5071227;28;20219;-49
2023/10/27 12:12:26;;;;;;;2.77;1.37;;;18.00;58.90;;;;;;5070846;28;20172;-50
2023/10/27 12:14:52;;;;;;;2.90;1.03;;;18.00;58.60;;;;;;5070897;28;20194;-52
2023/10/27 12:17:17;;;;;;;3.73;1.20;;;17.90;58.00;;;;;;5070252;28;20184;-49
2023/10/27 12:19:44;;;;;;;6.00;1.07;;;17.60;58.10;;;;;;5070946;28;20223;-49
2023/10/27 12:22:10;;;;;;;3.30;1.33;;;17.70;58.00;;;;;;5070714;28;20180;-51
2023/10/27 12:24:35;;;;;;;1.73;1.00;;;17.80;58.40;;;;;;5070727;28;20415;-48
2023/10/27 12:27:01;;;;;;;2.20;1.07;;;17.70;57.70;;;;;;5070195;28;20191;-49
2023/10/27 12:29:27;;;;;;;3.33;0.90;;;17.60;56.50;;;;;;5070808;28;20631;-49
2023/10/27 12:31:56;;;;;;;1.57;1.10;;;17.90;58.20;;;;;;5071047;28;20223;-54
2023/10/27 12:34:21;;;;;;;1.10;0.80;;;18.00;56.90;;;;;;5070533;28;20414;-49
2023/10/27 12:36:47;;;;;;;2.40;0.90;;;18.40;56.80;;;;;;5069914;28;20777;-49
2023/10/27 12:39:12;;;;;;;2.40;1.27;;;18.40;56.60;;;;;;5070729;28;20269;-49
2023/10/27 12:41:38;;;;;;;4.37;1.17;;;18.60;56.80;;;;;;5070116;28;20992;-52
2023/10/27 12:44:04;;;;;;;1.30;1.10;;;18.50;56.30;;;;;;5070437;28;20606;-49